createdAt,value
2018-06-18T00:01:46.319Z,20.40
2018-06-18T00:04:14.261Z,20.40
2018-06-18T00:06:42.280Z,20.40
2018-06-18T00:09:12.620Z,20.40
2018-06-18T00:11:40.758Z,20.40
2018-06-18T00:16:37.100Z,20.40
2018-06-18T00:19:05.034Z,20.40
2018-06-18T00:21:33.218Z,20.40
2018-06-18T00:24:01.317Z,20.30
2018-06-18T00:26:29.186Z,20.40
2018-06-18T00:28:57.052Z,20.30
2018-06-18T00:31:24.981Z,20.30
2018-06-18T00:33:53.204Z,20.30
2018-06-18T00:36:21.072Z,20.30
2018-06-18T00:38:49.860Z,20.20
2018-06-18T00:41:18.242Z,20.20
2018-06-18T00:43:46.126Z,20.20
2018-06-18T00:46:14.469Z,20.20
2018-06-18T00:48:42.377Z,20.20
2018-06-18T00:51:10.254Z,20.20
2018-06-18T00:53:38.118Z,20.10
2018-06-18T00:56:16.595Z,20.20
2018-06-18T00:58:44.790Z,20.20
2018-06-18T01:01:13.159Z,20.20
2018-06-18T01:06:08.883Z,20.10
2018-06-18T01:08:36.728Z,20.10
2018-06-18T01:11:04.650Z,20.00
2018-06-18T01:16:00.193Z,20.00
2018-06-18T01:18:28.109Z,19.90
2018-06-18T01:20:56.512Z,19.90
2018-06-18T01:23:48.625Z,19.80
2018-06-18T01:26:16.706Z,19.80
2018-06-18T01:28:44.590Z,19.70
2018-06-18T01:31:12.458Z,19.60
2018-06-18T01:36:08.183Z,19.50
2018-06-18T01:41:03.752Z,19.50
2018-06-18T01:43:31.664Z,19.40
2018-06-18T01:45:59.697Z,19.40
2018-06-18T01:48:27.827Z,19.30
2018-06-18T01:53:23.425Z,19.30
2018-06-18T01:58:19.000Z,19.20
2018-06-18T02:05:42.578Z,19.20
2018-06-18T02:08:10.508Z,19.20
2018-06-18T02:10:38.597Z,19.10
2018-06-18T02:13:06.595Z,19.10
2018-06-18T02:15:34.530Z,19.00
2018-06-18T02:20:30.138Z,19.00
2018-06-18T02:22:57.997Z,19.00
2018-06-18T02:25:25.871Z,19.00
2018-06-18T02:28:01.635Z,19.00
2018-06-18T02:30:35.409Z,18.90
2018-06-18T02:34:11.641Z,18.90
2018-06-18T02:36:45.121Z,18.80
2018-06-18T02:41:43.230Z,18.60
2018-06-18T02:44:11.095Z,18.60
2018-06-18T02:46:38.978Z,18.60
2018-06-18T02:51:35.479Z,18.60
2018-06-18T02:54:03.402Z,18.60
2018-06-18T02:56:38.246Z,18.50
2018-06-18T02:59:06.119Z,18.50
2018-06-18T03:06:29.995Z,18.40
2018-06-18T03:08:57.852Z,18.40
2018-06-18T03:11:25.736Z,18.40
2018-06-18T03:16:21.450Z,18.50
2018-06-18T03:18:54.798Z,18.50
2018-06-18T03:21:29.162Z,18.50
2018-06-18T03:24:03.031Z,18.40
2018-06-18T03:26:36.807Z,18.40
2018-06-18T03:29:10.410Z,18.40
2018-06-18T03:34:06.047Z,18.20
2018-06-18T03:36:33.986Z,18.20
2018-06-18T03:39:01.883Z,18.20
2018-06-18T03:41:29.747Z,18.10
2018-06-18T03:44:02.551Z,18.00
2018-06-18T03:46:30.524Z,18.00
2018-06-18T03:48:59.107Z,18.10
2018-06-18T03:51:26.942Z,18.10
2018-06-18T03:56:22.731Z,18.10
2018-06-18T03:58:50.594Z,18.00
2018-06-18T04:02:02.817Z,18.00
2018-06-18T04:07:15.287Z,18.00
2018-06-18T04:09:48.736Z,18.00
2018-06-18T04:12:16.917Z,18.00
2018-06-18T04:14:45.094Z,18.00
2018-06-18T04:17:14.547Z,18.10
2018-06-18T04:19:42.450Z,18.10
2018-06-18T04:22:10.327Z,18.10
2018-06-18T04:24:38.893Z,18.10
2018-06-18T04:27:06.854Z,18.20
2018-06-18T04:29:34.734Z,18.20
2018-06-18T04:32:03.200Z,18.20
2018-06-18T04:34:40.611Z,18.30
2018-06-18T04:37:08.522Z,18.20
2018-06-18T04:39:36.427Z,18.20
2018-06-18T04:42:10.805Z,18.30
2018-06-18T04:44:44.426Z,18.40
2018-06-18T04:47:18.041Z,18.40
2018-06-18T04:49:51.610Z,18.40
2018-06-18T04:52:19.522Z,18.40
2018-06-18T04:57:15.181Z,18.50
2018-06-18T05:02:12.671Z,18.60
2018-06-18T05:10:42.704Z,18.90
2018-06-18T05:13:11.126Z,18.90
2018-06-18T05:18:07.464Z,18.90
2018-06-18T05:20:35.379Z,19.10
2018-06-18T05:25:35.777Z,19.40
2018-06-18T05:30:32.096Z,19.80
2018-06-18T05:35:29.079Z,20.30
2018-06-18T05:38:34.930Z,20.50
2018-06-18T05:43:31.430Z,20.90
2018-06-18T05:50:55.410Z,21.40
2018-06-18T05:53:23.924Z,21.50
2018-06-18T05:55:52.178Z,21.50
2018-06-18T05:58:20.080Z,21.60
2018-06-18T06:00:48.519Z,21.90
2018-06-18T06:03:16.443Z,22.20
2018-06-18T06:05:44.954Z,22.30
2018-06-18T06:08:12.983Z,22.50
2018-06-18T06:10:40.921Z,22.50
2018-06-18T06:13:09.796Z,22.70
2018-06-18T06:15:38.171Z,22.80
2018-06-18T06:18:06.398Z,22.90
2018-06-18T06:20:35.102Z,22.90
2018-06-18T06:25:30.872Z,23.10
2018-06-18T06:30:26.489Z,23.30
2018-06-18T06:32:54.384Z,23.30
2018-06-18T06:35:26.477Z,23.30
2018-06-18T06:37:55.423Z,23.20
2018-06-18T06:40:23.821Z,23.30
2018-06-18T06:42:51.777Z,23.10
2018-06-18T06:45:20.235Z,23.10
2018-06-18T06:47:48.164Z,23.20
2018-06-18T06:50:16.180Z,23.10
2018-06-18T06:55:12.184Z,23.00
2018-06-18T06:57:40.066Z,23.10
2018-06-18T07:00:08.166Z,23.20
2018-06-18T07:02:36.171Z,23.10
2018-06-18T07:05:04.182Z,23.00
2018-06-18T07:07:32.895Z,23.00
2018-06-18T07:10:00.816Z,23.00
2018-06-18T07:12:28.847Z,23.00
2018-06-18T07:14:56.761Z,23.10
2018-06-18T07:17:24.661Z,23.00
2018-06-18T07:22:20.433Z,23.20
2018-06-18T07:24:48.330Z,23.20
2018-06-18T07:27:16.305Z,23.10
2018-06-18T07:29:44.205Z,23.30
2018-06-18T07:34:39.899Z,23.30
2018-06-18T07:37:08.502Z,23.40
2018-06-18T07:39:36.554Z,23.40
2018-06-18T07:42:04.473Z,23.60
2018-06-18T07:44:32.732Z,23.70
2018-06-18T07:47:00.758Z,23.50
2018-06-18T07:49:28.684Z,23.30
2018-06-18T07:54:24.319Z,23.20
2018-06-18T07:56:52.298Z,23.20
2018-06-18T07:59:20.668Z,23.10
2018-06-18T08:06:44.144Z,23.10
2018-06-18T08:09:13.571Z,23.10
2018-06-18T08:11:42.203Z,23.10
2018-06-18T08:14:10.320Z,23.20
2018-06-18T08:19:06.914Z,23.20
2018-06-18T08:21:35.134Z,23.20
2018-06-18T08:26:31.181Z,23.50
2018-06-18T08:31:27.100Z,23.70
2018-06-18T08:33:55.012Z,23.90
2018-06-18T08:36:23.279Z,23.70
2018-06-18T08:43:47.349Z,23.60
2018-06-18T08:46:15.311Z,23.50
2018-06-18T08:48:49.981Z,23.50
2018-06-18T08:53:58.816Z,23.60
2018-06-18T08:59:08.838Z,23.50
2018-06-18T09:01:41.871Z,23.60
2018-06-18T09:06:50.200Z,23.80
2018-06-18T09:11:45.886Z,23.80
2018-06-18T09:14:13.811Z,23.70
2018-06-18T09:16:41.751Z,23.50
2018-06-18T09:21:37.906Z,23.60
2018-06-18T09:24:06.100Z,23.70
2018-06-18T09:26:34.011Z,23.80
2018-06-18T09:29:01.906Z,23.80
2018-06-18T09:31:31.477Z,23.80
2018-06-18T09:34:00.182Z,23.80
2018-06-18T09:36:28.117Z,23.90
2018-06-18T09:38:56.873Z,24.00
2018-06-18T09:41:25.157Z,24.10
2018-06-18T09:46:20.835Z,24.20
2018-06-18T09:48:57.502Z,24.30
2018-06-18T09:51:31.076Z,24.20
2018-06-18T09:54:05.486Z,24.10
2018-06-18T09:56:39.110Z,24.00
2018-06-18T09:59:12.697Z,24.10
2018-06-18T10:01:40.636Z,24.00
2018-06-18T10:04:08.505Z,24.00
2018-06-18T10:11:35.901Z,24.10
2018-06-18T10:14:04.944Z,24.10
2018-06-18T10:16:32.857Z,24.30
2018-06-18T10:19:01.263Z,24.30
2018-06-18T10:21:29.536Z,24.40
2018-06-18T10:26:26.673Z,24.60
2018-06-18T10:31:22.365Z,24.90
2018-06-18T10:33:56.619Z,25.20
2018-06-18T10:36:30.170Z,25.30
2018-06-18T10:39:03.746Z,25.40
2018-06-18T10:44:05.476Z,25.60
2018-06-18T10:46:34.304Z,25.60
2018-06-18T10:49:03.341Z,25.50
2018-06-18T10:51:31.369Z,25.40
2018-06-18T10:53:59.294Z,25.30
2018-06-18T10:56:27.206Z,25.40
2018-06-18T11:01:29.218Z,25.20
2018-06-18T11:03:57.944Z,25.30
2018-06-18T11:06:31.560Z,25.30
2018-06-18T11:08:59.801Z,25.30
2018-06-18T11:11:28.227Z,25.30
2018-06-18T11:13:56.104Z,25.30
2018-06-18T11:18:57.513Z,25.00
2018-06-18T11:21:33.473Z,24.70
2018-06-18T11:24:06.875Z,24.50
2018-06-18T11:26:40.908Z,24.70
2018-06-18T11:29:09.135Z,24.90
2018-06-18T11:31:37.985Z,25.00
2018-06-18T11:34:06.559Z,25.10
2018-06-18T11:36:35.143Z,25.30
2018-06-18T11:39:04.750Z,25.30
2018-06-18T11:46:28.329Z,24.50
2018-06-18T11:48:57.022Z,24.50
2018-06-18T11:51:25.065Z,24.80
2018-06-18T11:53:52.987Z,25.00
2018-06-18T11:56:20.982Z,25.20
2018-06-18T12:01:29.504Z,25.50
2018-06-18T12:04:03.026Z,25.80
2018-06-18T12:06:37.270Z,25.90
2018-06-18T12:09:12.793Z,25.80
2018-06-18T12:11:41.746Z,25.90
2018-06-18T12:14:09.719Z,26.20
2018-06-18T12:16:38.360Z,26.40
2018-06-18T12:19:07.251Z,26.50
2018-06-18T12:21:35.309Z,26.50
2018-06-18T12:24:03.335Z,26.60
2018-06-18T12:26:32.130Z,26.70
2018-06-18T12:29:00.409Z,26.80
2018-06-18T12:33:56.894Z,26.70
2018-06-18T12:36:24.830Z,26.70
2018-06-18T12:38:52.756Z,26.70
2018-06-18T12:41:20.752Z,26.70
2018-06-18T12:43:52.358Z,26.70
2018-06-18T12:46:26.768Z,26.60
2018-06-18T12:49:01.226Z,26.50
2018-06-18T12:51:34.902Z,26.40
2018-06-18T12:54:08.516Z,26.30
2018-06-18T12:56:42.968Z,26.30
2018-06-18T12:59:11.948Z,26.20
2018-06-18T13:01:45.402Z,26.20
2018-06-18T13:09:09.509Z,26.60
2018-06-18T13:14:05.492Z,26.60
2018-06-18T13:16:33.526Z,26.50
2018-06-18T13:21:29.163Z,26.40
2018-06-18T13:23:57.067Z,26.50
2018-06-18T13:26:25.080Z,26.50
2018-06-18T13:31:20.967Z,26.60
2018-06-18T13:33:48.935Z,26.60
2018-06-18T13:36:16.978Z,26.50
2018-06-18T13:38:51.445Z,26.50
2018-06-18T13:41:26.085Z,26.60
2018-06-18T13:43:59.607Z,26.60
2018-06-18T13:49:00.931Z,26.70
2018-06-18T13:51:29.845Z,26.60
2018-06-18T13:53:57.756Z,26.50
2018-06-18T13:56:25.654Z,26.30
2018-06-18T13:58:54.270Z,26.30
2018-06-18T14:01:22.935Z,26.30
2018-06-18T14:03:51.121Z,26.20
2018-06-18T14:06:19.435Z,26.00
2018-06-18T14:11:15.207Z,25.50
2018-06-18T14:13:43.119Z,25.40
2018-06-18T14:16:11.413Z,25.60
2018-06-18T14:18:39.309Z,25.80
2018-06-18T14:21:07.228Z,26.00
2018-06-18T14:26:02.993Z,26.40
2018-06-18T14:28:30.914Z,26.40
2018-06-18T14:31:04.525Z,26.40
2018-06-18T14:36:13.885Z,26.10
2018-06-18T14:38:47.310Z,25.80
2018-06-18T14:43:43.254Z,25.70
2018-06-18T14:46:11.264Z,25.40
2018-06-18T14:48:40.431Z,25.10
2018-06-18T14:51:08.463Z,24.90
2018-06-18T14:56:37.114Z,24.70
2018-06-18T14:59:19.079Z,24.70
2018-06-18T15:01:47.073Z,24.70
2018-06-18T15:04:15.692Z,24.70
2018-06-18T15:11:40.691Z,24.90
2018-06-18T15:14:09.078Z,25.10
2018-06-18T15:16:37.005Z,25.00
2018-06-18T15:21:36.191Z,25.10
2018-06-18T15:24:07.537Z,25.00
2018-06-18T15:26:35.424Z,25.10
2018-06-18T15:31:31.191Z,25.20
2018-06-18T15:33:59.459Z,25.30
2018-06-18T15:41:23.862Z,25.30
2018-06-18T15:43:51.788Z,25.30
2018-06-18T15:46:19.700Z,25.30
2018-06-18T15:53:43.866Z,25.30
2018-06-18T15:56:11.983Z,25.30
2018-06-18T15:58:39.909Z,25.20
2018-06-18T16:01:08.517Z,25.20
2018-06-18T16:03:37.302Z,25.10
2018-06-18T16:06:05.406Z,25.00
2018-06-18T16:11:01.142Z,24.80
2018-06-18T16:15:58.128Z,24.50
2018-06-18T16:18:26.402Z,24.50
2018-06-18T16:20:54.651Z,24.70
2018-06-18T16:28:18.435Z,24.70
2018-06-18T16:30:46.419Z,24.60
2018-06-18T16:33:14.322Z,24.50
2018-06-18T16:35:42.230Z,24.30
2018-06-18T16:38:10.115Z,24.10
2018-06-18T16:40:38.011Z,24.00
2018-06-18T16:45:33.672Z,23.90
2018-06-18T16:48:02.082Z,23.90
2018-06-18T16:50:30.819Z,23.80
2018-06-18T16:52:58.855Z,23.80
2018-06-18T16:55:26.940Z,23.80
2018-06-18T16:57:54.865Z,23.80
2018-06-18T17:00:22.763Z,23.90
2018-06-18T17:02:50.707Z,24.00
2018-06-18T17:05:18.616Z,24.10
2018-06-18T17:07:46.513Z,24.10
2018-06-18T17:10:15.500Z,24.20
2018-06-18T17:12:43.399Z,24.20
2018-06-18T17:15:11.287Z,24.10
2018-06-18T17:17:39.982Z,24.10
2018-06-18T17:22:35.810Z,23.80
2018-06-18T17:25:03.791Z,23.70
2018-06-18T17:27:32.687Z,23.60
2018-06-18T17:30:00.578Z,23.60
2018-06-18T17:32:28.556Z,23.60
2018-06-18T17:34:56.439Z,23.60
2018-06-18T17:37:24.374Z,23.80
2018-06-18T17:39:52.269Z,23.90
2018-06-18T17:42:20.566Z,23.90
2018-06-18T17:44:48.493Z,24.00
2018-06-18T17:49:44.235Z,24.00
2018-06-18T17:54:39.939Z,23.90
2018-06-18T17:59:36.292Z,23.70
2018-06-18T18:02:04.407Z,23.60
2018-06-18T18:04:32.311Z,23.50
2018-06-18T18:07:00.213Z,23.30
2018-06-18T18:11:55.894Z,23.20
2018-06-18T18:14:24.145Z,23.20
2018-06-18T18:16:52.308Z,23.20
2018-06-18T18:19:20.214Z,23.10
2018-06-18T18:21:48.090Z,23.10
2018-06-18T18:24:15.984Z,23.20
2018-06-18T18:31:40.211Z,23.00
2018-06-18T18:39:05.723Z,22.90
2018-06-18T18:41:33.843Z,22.80
2018-06-18T18:44:01.766Z,22.60
2018-06-18T18:46:29.650Z,22.60
2018-06-18T18:48:58.584Z,22.50
2018-06-18T18:51:26.490Z,22.40
2018-06-18T18:53:54.446Z,22.40
2018-06-18T18:56:33.810Z,22.30
2018-06-18T19:01:41.424Z,22.10
2018-06-18T19:04:12.165Z,22.00
2018-06-18T19:06:40.093Z,22.10
2018-06-18T19:09:09.895Z,22.00
2018-06-18T19:11:38.491Z,21.90
2018-06-18T19:19:03.338Z,21.90
2018-06-18T19:21:32.252Z,21.90
2018-06-18T19:26:28.497Z,21.70
2018-06-18T19:31:25.251Z,21.40
2018-06-18T19:34:15.892Z,21.30
2018-06-18T19:36:50.964Z,21.10
2018-06-18T19:39:19.449Z,20.90
2018-06-18T19:41:47.349Z,20.90
2018-06-18T19:46:53.866Z,20.70
2018-06-18T19:49:21.779Z,20.60
2018-06-18T19:51:49.866Z,20.60
2018-06-18T19:54:20.557Z,20.50
2018-06-18T19:56:48.768Z,20.40
2018-06-18T19:59:16.653Z,20.40
2018-06-18T20:06:40.292Z,19.90
2018-06-18T20:09:10.263Z,19.80
2018-06-18T20:11:38.675Z,19.60
2018-06-18T20:14:06.747Z,19.60
2018-06-18T20:16:35.241Z,19.60
2018-06-18T20:19:03.241Z,19.60
2018-06-18T20:21:31.463Z,19.40
2018-06-18T20:26:27.698Z,19.20
2018-06-18T20:31:24.068Z,19.10
2018-06-18T20:33:54.727Z,19.00
2018-06-18T20:36:23.925Z,19.00
2018-06-18T20:38:52.095Z,19.00
2018-06-18T20:41:20.431Z,19.00
2018-06-18T20:43:57.232Z,18.90
2018-06-18T20:46:25.132Z,18.80
2018-06-18T20:48:53.241Z,18.80
2018-06-18T20:53:49.294Z,18.70
2018-06-18T20:58:44.939Z,18.60
2018-06-18T21:06:08.403Z,18.60
2018-06-18T21:08:36.327Z,18.60
2018-06-18T21:11:04.359Z,18.50
2018-06-18T21:16:00.674Z,18.40
2018-06-18T21:18:29.086Z,18.30
2018-06-18T21:23:24.930Z,18.20
2018-06-18T21:28:21.044Z,18.20
2018-06-18T21:30:48.977Z,18.10
2018-06-18T21:33:16.863Z,18.00
2018-06-18T21:35:44.780Z,18.00
2018-06-18T21:40:40.891Z,18.10
2018-06-18T21:43:09.207Z,17.90
2018-06-18T21:45:37.112Z,17.80
2018-06-18T21:48:05.118Z,17.80
2018-06-18T21:50:33.044Z,17.70
2018-06-18T21:53:01.008Z,17.70
2018-06-18T21:55:28.961Z,17.60
2018-06-18T21:57:56.909Z,17.60
2018-06-18T22:02:54.254Z,17.50
2018-06-18T22:05:22.310Z,17.50
2018-06-18T22:07:50.261Z,17.40
2018-06-18T22:10:18.512Z,17.40
2018-06-18T22:12:46.396Z,17.30
2018-06-18T22:15:14.299Z,17.40
2018-06-18T22:20:10.364Z,17.40
2018-06-18T22:27:34.307Z,17.20
2018-06-18T22:30:02.262Z,17.10
2018-06-18T22:32:30.268Z,17.10
2018-06-18T22:34:58.402Z,17.10
2018-06-18T22:37:26.471Z,17.10
2018-06-18T22:39:54.476Z,17.10
2018-06-18T22:42:22.449Z,16.90
2018-06-18T22:44:50.563Z,17.00
2018-06-18T22:47:18.518Z,16.90
2018-06-18T22:49:46.942Z,16.80
2018-06-18T22:54:46.967Z,16.70
2018-06-18T22:59:44.343Z,16.60
2018-06-18T23:04:40.856Z,16.60
2018-06-18T23:09:36.951Z,16.60
2018-06-18T23:12:05.224Z,16.60
2018-06-18T23:14:33.195Z,16.60
2018-06-18T23:17:02.112Z,16.60
2018-06-18T23:19:30.184Z,16.60
2018-06-18T23:21:58.336Z,16.50
2018-06-18T23:24:26.247Z,16.30
2018-06-18T23:26:55.417Z,16.30
2018-06-18T23:29:23.671Z,16.30
2018-06-18T23:31:52.137Z,16.30
2018-06-18T23:34:20.173Z,16.30
2018-06-18T23:36:48.118Z,16.30
2018-06-18T23:39:16.606Z,16.40
2018-06-18T23:41:47.698Z,16.40
2018-06-18T23:44:15.743Z,16.50
2018-06-18T23:46:43.680Z,16.40
2018-06-18T23:49:11.779Z,16.40
2018-06-18T23:51:41.212Z,16.30
2018-06-18T23:54:09.257Z,16.20
2018-06-18T23:56:37.162Z,16.10
2018-06-18T23:59:05.793Z,16.10
